Time;durP1;ratioP1;P1;durP2;ratioP2;P2;SDS_P1;SDS_P2;PMS_P1;PMS_P2;Temp;Humidity;BMP_temperature;BMP_pressure;BME280_temperature;BME280_humidity;BME280_pressure;Samples;Min_cycle;Max_cycle;Signal;HPM_P1;HPM_P2
2022/11/25 00:01:21;;;;;;;11.80;5.30;;;7.00;99.90;;;;;;5014727;28;20202;-68
2022/11/25 00:03:47;;;;;;;8.47;5.20;;;7.00;99.90;;;;;;5015206;28;20271;-67
2022/11/25 00:06:20;;;;;;;11.87;5.20;;;7.00;99.90;;;;;;4996535;28;20187;-67
2022/11/25 00:08:49;;;;;;;10.10;5.53;;;7.00;99.90;;;;;;4997094;28;20203;-68
2022/11/25 00:11:16;;;;;;;11.13;5.50;;;7.00;99.90;;;;;;5015079;28;20620;-68
2022/11/25 00:13:43;;;;;;;9.53;5.23;;;7.00;99.90;;;;;;5014547;28;20202;-67
2022/11/25 00:16:14;;;;;;;15.80;5.83;;;7.00;99.90;;;;;;5014672;28;20180;-67
2022/11/25 00:18:48;;;;;;;8.57;5.33;;;7.00;99.90;;;;;;5014511;28;20208;-67
2022/11/25 00:21:16;;;;;;;16.00;5.57;;;7.00;99.90;;;;;;5014987;28;20281;-67
2022/11/25 00:23:43;;;;;;;11.37;5.87;;;7.00;99.90;;;;;;5014506;28;20182;-67
2022/11/25 00:26:13;;;;;;;10.37;6.53;;;7.10;99.90;;;;;;5014600;28;20210;-67
2022/11/25 00:28:41;;;;;;;13.97;5.40;;;7.20;99.90;;;;;;5014930;28;20550;-67
2022/11/25 00:31:12;;;;;;;15.20;6.00;;;7.20;99.90;;;;;;5014209;28;20183;-67
2022/11/25 00:33:39;;;;;;;12.37;5.10;;;7.40;99.90;;;;;;5014518;28;20247;-68
2022/11/25 00:36:12;;;;;;;10.40;5.30;;;7.50;99.90;;;;;;5014128;28;20656;-67
2022/11/25 00:38:39;;;;;;;7.80;5.07;;;7.60;99.90;;;;;;5014287;28;20184;-68
2022/11/25 00:46:33;;;;;;;12.23;5.57;;;7.60;99.90;;;;;;5014456;28;20249;-67
2022/11/25 00:48:58;;;;;;;10.63;5.73;;;7.70;99.90;;;;;;5014033;28;20231;-68
2022/11/25 00:51:24;;;;;;;8.53;5.40;;;7.70;99.90;;;;;;5014395;28;20172;-67
2022/11/25 00:53:50;;;;;;;16.63;5.83;;;7.90;99.90;;;;;;5014596;28;20172;-67
2022/11/25 00:56:16;;;;;;;13.77;5.77;;;8.00;99.90;;;;;;5014628;28;20175;-67
2022/11/25 00:58:43;;;;;;;11.77;5.27;;;8.00;99.90;;;;;;5014007;28;20552;-67
2022/11/25 01:01:09;;;;;;;16.67;5.40;;;8.10;99.90;;;;;;4996374;28;20208;-69
2022/11/25 01:03:38;;;;;;;10.37;5.07;;;8.10;99.90;;;;;;5014113;28;20544;-67
2022/11/25 01:06:06;;;;;;;8.77;5.83;;;8.10;99.90;;;;;;5014244;28;20172;-68
2022/11/25 01:08:34;;;;;;;11.23;5.10;;;8.10;99.90;;;;;;5013637;28;20230;-68
2022/11/25 01:11:00;;;;;;;8.40;4.57;;;8.10;99.90;;;;;;5014188;28;20180;-68
2022/11/25 01:13:27;;;;;;;16.10;5.70;;;8.10;99.90;;;;;;5013699;28;20199;-67
2022/11/25 01:15:53;;;;;;;9.30;5.00;;;8.10;99.90;;;;;;5014151;28;20171;-68
2022/11/25 01:18:18;;;;;;;15.10;4.60;;;8.20;99.90;;;;;;5017271;28;20183;-68
2022/11/25 01:20:44;;;;;;;12.07;5.47;;;8.20;99.90;;;;;;5019207;28;20319;-67
2022/11/25 01:23:10;;;;;;;10.47;5.27;;;8.30;99.90;;;;;;5018892;28;20168;-67
2022/11/25 01:25:37;;;;;;;9.60;5.07;;;8.30;99.90;;;;;;5018529;28;20637;-67
2022/11/25 01:28:03;;;;;;;11.93;4.97;;;8.30;99.90;;;;;;5017839;28;20207;-67
2022/11/25 01:30:29;;;;;;;13.07;5.63;;;8.30;99.90;;;;;;5000233;28;20365;-67
2022/11/25 01:32:54;;;;;;;22.13;6.13;;;8.30;99.90;;;;;;5000252;28;20278;-67
2022/11/25 01:35:20;;;;;;;13.93;5.40;;;8.30;99.90;;;;;;5000189;28;20187;-67
2022/11/25 01:37:46;;;;;;;15.20;5.50;;;8.30;99.90;;;;;;5017802;28;20190;-67
2022/11/25 01:40:12;;;;;;;9.07;5.20;;;8.40;99.90;;;;;;5000172;28;20207;-68
2022/11/25 01:42:43;;;;;;;13.63;5.30;;;8.40;99.90;;;;;;5017689;28;20573;-67
2022/11/25 01:45:34;;;;;;;9.77;5.90;;;8.40;99.90;;;;;;5017775;28;20176;-67
2022/11/25 01:48:09;;;;;;;13.37;5.63;;;8.40;99.90;;;;;;5017800;28;20168;-68
2022/11/25 01:50:35;;;;;;;18.10;6.03;;;8.50;99.90;;;;;;5017439;28;20199;-67
2022/11/25 01:53:05;;;;;;;14.83;6.27;;;8.50;99.90;;;;;;5017277;28;20641;-68
2022/11/25 01:55:33;;;;;;;12.27;6.10;;;8.50;99.90;;;;;;5017213;28;20217;-67
2022/11/25 01:58:16;;;;;;;14.37;5.90;;;8.50;99.90;;;;;;5017323;28;20198;-67
2022/11/25 02:00:49;;;;;;;12.67;5.50;;;8.40;99.90;;;;;;5017236;28;20649;-68
2022/11/25 02:03:22;;;;;;;7.03;4.60;;;8.40;99.90;;;;;;5017558;28;20172;-67
2022/11/25 02:06:06;;;;;;;12.47;6.23;;;8.40;99.90;;;;;;5017714;28;20524;-67
2022/11/25 02:08:32;;;;;;;9.07;5.17;;;8.30;99.90;;;;;;5017198;28;20187;-68
2022/11/25 02:11:00;;;;;;;10.67;5.10;;;8.40;99.90;;;;;;5017430;28;20199;-67
2022/11/25 02:13:27;;;;;;;10.77;5.17;;;8.30;99.90;;;;;;4999469;28;20184;-67
2022/11/25 02:15:53;;;;;;;11.77;5.67;;;8.40;99.90;;;;;;4999540;28;20188;-67
2022/11/25 02:18:19;;;;;;;15.77;6.10;;;8.30;99.90;;;;;;5016878;28;20180;-67
2022/11/25 02:20:45;;;;;;;12.03;5.67;;;8.30;99.90;;;;;;5017038;28;20195;-67
2022/11/25 02:23:24;;;;;;;15.23;5.90;;;8.30;99.90;;;;;;5017033;28;20180;-67
2022/11/25 02:25:51;;;;;;;11.00;5.40;;;8.30;99.90;;;;;;4999394;28;20271;-67
2022/11/25 02:28:25;;;;;;;9.40;5.20;;;8.30;99.90;;;;;;5016692;28;20187;-67
2022/11/25 02:30:52;;;;;;;9.23;5.77;;;8.30;99.90;;;;;;5016447;28;20232;-67
2022/11/25 02:33:18;;;;;;;16.83;5.73;;;8.20;99.90;;;;;;5017378;28;20267;-67
2022/11/25 02:35:51;;;;;;;10.50;5.83;;;8.20;99.90;;;;;;5016790;28;20191;-67
2022/11/25 02:38:45;;;;;;;10.87;5.30;;;8.20;99.90;;;;;;5016613;28;20179;-67
2022/11/25 02:41:24;;;;;;;11.03;5.40;;;8.20;99.90;;;;;;4999224;28;20215;-67
2022/11/25 02:43:49;;;;;;;11.23;5.33;;;8.10;99.90;;;;;;4998672;28;20174;-67
2022/11/25 02:46:20;;;;;;;13.53;6.17;;;8.10;99.90;;;;;;5016103;28;20179;-68
2022/11/25 02:48:46;;;;;;;13.43;5.90;;;8.10;99.90;;;;;;4998618;28;20231;-67
2022/11/25 02:51:14;;;;;;;17.90;5.70;;;8.10;99.90;;;;;;5014877;28;20234;-67
2022/11/25 02:53:41;;;;;;;13.57;5.90;;;8.10;99.90;;;;;;5016676;28;20184;-67
2022/11/25 02:56:08;;;;;;;14.47;5.00;;;8.20;99.90;;;;;;5016224;28;20238;-67
2022/11/25 02:58:34;;;;;;;11.87;5.20;;;8.20;99.90;;;;;;4998706;28;20585;-67
2022/11/25 03:01:00;;;;;;;13.57;5.60;;;8.30;99.90;;;;;;4998733;28;20208;-67
2022/11/25 03:03:26;;;;;;;12.10;5.73;;;8.30;99.90;;;;;;5016099;28;20180;-68
2022/11/25 03:05:52;;;;;;;15.07;5.50;;;8.30;99.90;;;;;;5016248;28;20200;-68
2022/11/25 03:08:17;;;;;;;10.30;5.50;;;8.30;99.90;;;;;;4998550;28;20194;-67
2022/11/25 03:10:43;;;;;;;12.80;5.77;;;8.30;99.90;;;;;;4998408;28;20310;-67
2022/11/25 03:13:09;;;;;;;14.67;5.73;;;8.30;99.90;;;;;;5015717;28;20180;-67
2022/11/25 03:15:36;;;;;;;14.83;6.07;;;8.30;99.90;;;;;;5016061;28;20187;-67
2022/11/25 03:18:03;;;;;;;11.30;5.60;;;8.30;99.90;;;;;;5016403;28;20175;-68
2022/11/25 03:20:30;;;;;;;14.93;5.07;;;8.30;99.90;;;;;;4998371;28;20210;-67
2022/11/25 03:22:55;;;;;;;15.20;5.57;;;8.30;99.90;;;;;;4998318;28;20683;-68
2022/11/25 03:25:21;;;;;;;16.10;5.37;;;8.30;99.90;;;;;;5016253;28;20172;-67
2022/11/25 03:27:48;;;;;;;17.00;5.70;;;8.30;99.90;;;;;;4998648;28;20198;-67
2022/11/25 03:30:17;;;;;;;8.40;5.37;;;8.40;99.90;;;;;;5015765;28;20204;-68
2022/11/25 03:32:43;;;;;;;14.47;5.10;;;8.30;99.90;;;;;;5015856;28;20193;-67
2022/11/25 03:35:10;;;;;;;12.43;5.90;;;8.40;99.90;;;;;;4997906;28;20190;-67
2022/11/25 03:37:36;;;;;;;13.53;5.17;;;8.40;99.90;;;;;;5016017;28;20258;-67
2022/11/25 03:40:03;;;;;;;9.43;5.47;;;8.30;99.90;;;;;;5014755;28;20239;-68
2022/11/25 03:42:28;;;;;;;11.97;6.13;;;8.30;99.90;;;;;;5014579;28;20217;-67
2022/11/25 03:44:54;;;;;;;11.80;4.90;;;8.30;99.90;;;;;;5015454;28;20183;-67
2022/11/25 03:47:20;;;;;;;11.43;5.57;;;8.40;99.90;;;;;;5015832;28;20180;-67
2022/11/25 03:49:46;;;;;;;14.40;5.63;;;8.30;99.90;;;;;;5015099;28;20625;-68
2022/11/25 03:52:12;;;;;;;8.60;5.27;;;8.40;99.90;;;;;;5015107;28;20183;-68
2022/11/25 03:54:38;;;;;;;14.90;5.10;;;8.40;99.90;;;;;;5015417;28;20548;-67
2022/11/25 03:57:03;;;;;;;11.23;5.10;;;8.40;99.90;;;;;;5015106;28;20644;-67
2022/11/25 03:59:29;;;;;;;10.03;5.07;;;8.40;99.90;;;;;;5015020;28;20200;-67
2022/11/25 04:01:55;;;;;;;13.30;5.30;;;8.40;99.90;;;;;;5015184;28;20244;-67
2022/11/25 04:04:21;;;;;;;12.30;5.33;;;8.40;99.90;;;;;;5013713;28;20183;-67
2022/11/25 04:06:46;;;;;;;13.73;5.00;;;8.40;99.90;;;;;;5014899;28;20226;-68
2022/11/25 04:09:13;;;;;;;12.00;5.07;;;8.40;99.90;;;;;;5014640;28;20222;-67
2022/11/25 04:14:22;;;;;;;10.20;5.00;;;8.40;99.90;;;;;;5014770;28;20183;-64
2022/11/25 04:16:48;;;;;;;9.30;5.60;;;8.40;99.90;;;;;;5014363;28;20637;-64
2022/11/25 04:19:14;;;;;;;11.13;4.97;;;8.40;99.90;;;;;;5014238;28;20226;-64
2022/11/25 04:21:40;;;;;;;14.13;5.67;;;8.30;99.90;;;;;;5014143;28;20199;-64
2022/11/25 04:24:07;;;;;;;12.23;5.37;;;8.30;99.90;;;;;;5014377;28;20270;-65
2022/11/25 04:26:33;;;;;;;13.63;5.90;;;8.30;99.90;;;;;;5014089;28;20180;-65
2022/11/25 04:28:59;;;;;;;13.10;5.70;;;8.20;99.90;;;;;;5014041;28;20289;-65
2022/11/25 04:31:25;;;;;;;19.47;5.97;;;8.20;99.90;;;;;;4996350;28;20656;-65
2022/11/25 04:33:50;;;;;;;9.47;5.47;;;8.20;99.90;;;;;;5014613;28;20194;-64
2022/11/25 04:36:16;;;;;;;16.10;5.67;;;8.20;99.90;;;;;;5014693;28;20259;-65
2022/11/25 04:38:42;;;;;;;10.37;5.53;;;8.10;99.90;;;;;;5013866;28;20651;-65
2022/11/25 04:41:08;;;;;;;11.80;5.07;;;8.20;99.90;;;;;;5013847;28;20207;-65
2022/11/25 04:43:34;;;;;;;13.80;5.90;;;8.10;99.90;;;;;;5014021;28;20179;-65
2022/11/25 04:46:01;;;;;;;9.10;4.83;;;8.20;99.90;;;;;;5013807;28;20621;-64
2022/11/25 04:48:27;;;;;;;9.27;5.27;;;8.30;99.90;;;;;;5014028;28;20230;-65
2022/11/25 04:50:53;;;;;;;15.70;6.03;;;8.30;99.90;;;;;;5013982;28;20604;-64
2022/11/25 04:53:19;;;;;;;14.37;5.40;;;8.30;99.90;;;;;;4995833;28;20270;-66
2022/11/25 04:55:45;;;;;;;14.33;5.60;;;8.30;99.90;;;;;;4996171;28;20211;-66
2022/11/25 04:58:11;;;;;;;15.53;5.90;;;8.30;99.90;;;;;;5013641;28;20613;-66
2022/11/25 05:00:37;;;;;;;19.17;5.77;;;8.30;99.90;;;;;;5013645;28;20195;-66
2022/11/25 05:03:03;;;;;;;11.87;5.60;;;8.20;99.90;;;;;;4996090;28;20183;-66
2022/11/25 05:05:29;;;;;;;14.97;6.00;;;8.20;99.90;;;;;;5013853;28;20172;-66
2022/11/25 05:07:55;;;;;;;13.17;5.63;;;8.10;99.90;;;;;;5013784;28;20226;-66
2022/11/25 05:10:22;;;;;;;12.13;5.40;;;8.00;99.90;;;;;;4995837;28;20326;-66
2022/11/25 05:12:48;;;;;;;9.93;5.30;;;8.00;99.90;;;;;;5013414;28;20263;-66
2022/11/25 05:15:14;;;;;;;8.57;5.20;;;7.90;99.90;;;;;;5012383;28;20175;-66
2022/11/25 05:17:40;;;;;;;16.27;5.83;;;7.90;99.90;;;;;;5013493;28;20188;-66
2022/11/25 05:20:07;;;;;;;9.10;5.43;;;8.00;99.90;;;;;;5013629;28;20210;-65
2022/11/25 05:22:34;;;;;;;16.33;6.27;;;8.00;99.90;;;;;;4995706;28;20216;-65
2022/11/25 05:25:01;;;;;;;13.27;6.00;;;8.00;99.90;;;;;;4995772;28;20637;-65
2022/11/25 05:27:27;;;;;;;13.70;5.57;;;8.00;99.90;;;;;;5013412;28;20594;-65
2022/11/25 05:29:52;;;;;;;20.70;6.33;;;8.00;99.90;;;;;;5013201;28;20222;-65
2022/11/25 05:32:18;;;;;;;18.90;6.00;;;8.00;99.90;;;;;;4995742;28;20641;-65
2022/11/25 05:34:44;;;;;;;16.63;5.77;;;8.00;99.90;;;;;;5013444;28;20195;-65
2022/11/25 05:37:12;;;;;;;13.57;5.70;;;8.00;99.90;;;;;;5013252;28;20186;-65
2022/11/25 05:39:38;;;;;;;15.73;5.47;;;8.00;99.90;;;;;;5013188;28;20207;-65
2022/11/25 05:42:04;;;;;;;13.27;5.80;;;8.00;99.90;;;;;;5013214;28;20204;-65
2022/11/25 05:44:29;;;;;;;11.03;5.60;;;8.00;99.90;;;;;;5013128;28;20187;-65
2022/11/25 05:46:55;;;;;;;12.87;5.70;;;8.00;99.90;;;;;;5013142;28;20179;-65
2022/11/25 05:49:21;;;;;;;12.00;5.47;;;8.00;99.90;;;;;;5013112;28;20204;-65
2022/11/25 05:51:47;;;;;;;9.87;5.53;;;8.10;99.90;;;;;;5013110;28;20645;-65
2022/11/25 05:54:13;;;;;;;10.80;5.50;;;8.10;99.90;;;;;;4995522;28;20653;-65
2022/11/25 05:56:39;;;;;;;16.03;5.37;;;8.00;99.90;;;;;;5013381;28;20180;-65
2022/11/25 05:59:06;;;;;;;19.10;7.23;;;8.10;99.90;;;;;;5012909;28;20295;-65
2022/11/25 06:01:32;;;;;;;11.87;5.47;;;8.10;99.90;;;;;;5012965;28;20234;-65
2022/11/25 06:04:02;;;;;;;15.93;5.63;;;8.10;99.90;;;;;;5013474;28;20182;-65
2022/11/25 06:06:29;;;;;;;11.13;5.77;;;8.00;99.90;;;;;;4998973;28;20271;-65
2022/11/25 06:08:55;;;;;;;16.53;5.77;;;8.00;99.90;;;;;;5016371;28;20239;-65
2022/11/25 06:11:21;;;;;;;12.67;4.97;;;8.00;99.90;;;;;;4999259;28;20205;-65
2022/11/25 06:13:47;;;;;;;11.60;6.07;;;8.10;99.90;;;;;;5016378;28;20263;-64
2022/11/25 06:16:16;;;;;;;14.87;6.00;;;8.10;99.90;;;;;;4998872;28;20223;-64
2022/11/25 06:18:42;;;;;;;14.83;5.60;;;8.20;99.90;;;;;;4998748;28;20187;-65
2022/11/25 06:21:09;;;;;;;12.90;5.63;;;8.10;99.90;;;;;;5016295;28;20204;-64
2022/11/25 06:23:35;;;;;;;8.53;5.27;;;8.10;99.90;;;;;;4998749;28;20180;-64
2022/11/25 06:26:11;;;;;;;13.60;5.47;;;8.10;99.90;;;;;;5016273;28;20176;-64
2022/11/25 06:28:37;;;;;;;11.80;5.97;;;8.10;99.90;;;;;;5016063;28;20176;-65
2022/11/25 06:31:08;;;;;;;11.53;5.90;;;8.00;99.90;;;;;;5016211;28;20183;-65
2022/11/25 06:33:34;;;;;;;8.53;5.53;;;8.00;99.90;;;;;;4998631;28;20226;-64
2022/11/25 06:36:05;;;;;;;14.73;6.17;;;8.00;99.90;;;;;;5016412;28;20172;-64
2022/11/25 06:38:31;;;;;;;12.77;5.90;;;8.00;99.90;;;;;;5015948;28;20199;-64
2022/11/25 06:41:04;;;;;;;12.73;5.53;;;8.00;99.90;;;;;;5016424;28;20172;-65
2022/11/25 06:43:31;;;;;;;15.17;6.27;;;8.00;99.90;;;;;;5016023;28;20163;-64
2022/11/25 06:46:09;;;;;;;17.63;6.27;;;7.90;99.90;;;;;;5016204;28;20641;-64
2022/11/25 06:48:35;;;;;;;13.33;6.07;;;8.00;99.90;;;;;;5015808;28;20668;-65
2022/11/25 06:51:04;;;;;;;10.27;5.30;;;7.90;99.90;;;;;;5016090;28;20172;-64
2022/11/25 06:53:31;;;;;;;14.50;6.43;;;7.90;99.90;;;;;;4998181;28;20176;-64
2022/11/25 06:56:12;;;;;;;11.97;6.53;;;7.90;99.90;;;;;;5015726;28;20182;-64
2022/11/25 06:58:38;;;;;;;14.07;6.10;;;7.80;99.90;;;;;;4997902;28;20278;-65
2022/11/25 07:01:15;;;;;;;15.70;6.53;;;7.80;99.90;;;;;;5015590;28;20211;-64
2022/11/25 07:03:42;;;;;;;18.13;6.57;;;7.70;99.90;;;;;;5015926;28;20168;-64
2022/11/25 07:06:09;;;;;;;12.87;5.90;;;7.70;99.90;;;;;;5015838;28;20172;-64
2022/11/25 07:08:35;;;;;;;14.63;6.50;;;7.60;99.90;;;;;;5017714;28;20171;-65
2022/11/25 07:11:22;;;;;;;15.77;6.47;;;7.60;99.90;;;;;;5019381;28;20164;-65
2022/11/25 07:13:51;;;;;;;10.97;6.40;;;7.50;99.90;;;;;;5015780;28;20163;-65
2022/11/25 07:16:17;;;;;;;10.10;6.43;;;7.50;99.90;;;;;;5015364;28;20178;-65
2022/11/25 07:18:43;;;;;;;11.43;6.10;;;7.50;99.90;;;;;;4997538;28;20176;-65
2022/11/25 07:21:15;;;;;;;15.63;6.37;;;7.40;99.90;;;;;;5015146;28;20206;-65
2022/11/25 07:23:43;;;;;;;13.87;6.10;;;7.40;99.90;;;;;;5015537;28;20156;-65
2022/11/25 07:26:20;;;;;;;20.27;7.17;;;7.40;99.90;;;;;;5015266;28;20259;-65
2022/11/25 07:28:47;;;;;;;13.13;6.97;;;7.40;99.90;;;;;;5015161;28;20508;-65
2022/11/25 07:31:16;;;;;;;14.40;7.37;;;7.40;99.90;;;;;;5015117;28;20180;-65
2022/11/25 07:33:43;;;;;;;12.93;6.57;;;7.40;99.90;;;;;;4997458;28;20180;-65
2022/11/25 07:36:11;;;;;;;11.97;7.00;;;7.40;99.90;;;;;;4997429;28;20183;-65
2022/11/25 07:38:38;;;;;;;13.30;6.27;;;7.40;99.90;;;;;;5014806;28;20195;-65
2022/11/25 07:41:04;;;;;;;15.13;6.17;;;7.40;99.90;;;;;;5015152;28;20602;-65
2022/11/25 07:43:30;;;;;;;16.83;6.47;;;7.40;99.90;;;;;;5014686;28;20176;-65
2022/11/25 07:45:56;;;;;;;12.33;7.23;;;7.40;99.90;;;;;;5015082;28;20204;-65
2022/11/25 07:48:21;;;;;;;19.03;7.67;;;7.30;99.90;;;;;;4997106;28;20267;-65
2022/11/25 07:50:49;;;;;;;18.63;6.97;;;7.40;99.90;;;;;;4997292;28;20191;-65
2022/11/25 07:53:14;;;;;;;11.43;6.87;;;7.40;99.90;;;;;;5014676;28;20168;-65
2022/11/25 07:55:40;;;;;;;14.20;6.37;;;7.30;99.90;;;;;;4997120;28;20175;-65
2022/11/25 07:58:06;;;;;;;14.93;6.57;;;7.40;99.90;;;;;;5014431;28;20170;-65
2022/11/25 08:00:32;;;;;;;11.77;7.87;;;7.40;99.90;;;;;;5014602;28;20199;-65
2022/11/25 08:02:57;;;;;;;17.60;7.70;;;7.40;99.90;;;;;;5014510;28;20211;-65
2022/11/25 08:05:23;;;;;;;18.77;7.97;;;7.40;99.90;;;;;;4996917;28;20204;-65
2022/11/25 08:07:49;;;;;;;14.47;7.20;;;7.50;99.90;;;;;;5014321;28;20250;-66
2022/11/25 08:10:14;;;;;;;15.70;7.90;;;7.50;99.90;;;;;;5014323;28;20211;-65
2022/11/25 08:12:40;;;;;;;19.67;8.83;;;7.50;99.90;;;;;;5014276;28;20183;-65
2022/11/25 08:15:06;;;;;;;16.53;7.43;;;7.40;99.90;;;;;;5014220;28;20724;-65
2022/11/25 08:17:32;;;;;;;20.83;7.67;;;7.50;99.90;;;;;;4996576;28;20176;-65
2022/11/25 08:19:58;;;;;;;16.90;8.27;;;7.50;99.90;;;;;;5014110;28;20329;-65
2022/11/25 08:22:23;;;;;;;11.07;7.70;;;7.50;99.90;;;;;;5014061;28;20664;-65
2022/11/25 08:24:49;;;;;;;18.43;8.67;;;7.40;99.90;;;;;;5014127;28;20179;-65
2022/11/25 08:27:15;;;;;;;21.97;7.70;;;7.50;99.90;;;;;;4995892;28;20180;-65
2022/11/25 08:29:41;;;;;;;10.23;7.33;;;7.50;99.90;;;;;;5013800;28;20199;-65
2022/11/25 08:32:08;;;;;;;14.50;8.00;;;7.50;99.90;;;;;;5013945;28;20180;-66
2022/11/25 08:34:33;;;;;;;16.47;8.47;;;7.50;99.90;;;;;;5014258;28;20180;-65
2022/11/25 08:36:59;;;;;;;17.17;7.80;;;7.50;99.90;;;;;;5013954;28;20190;-65
2022/11/25 08:39:25;;;;;;;20.43;8.00;;;7.50;99.90;;;;;;4996058;28;20585;-65
2022/11/25 08:41:51;;;;;;;20.50;9.40;;;7.60;99.90;;;;;;5012463;28;20200;-65
2022/11/25 08:44:17;;;;;;;19.77;8.50;;;7.60;99.90;;;;;;5013719;28;20183;-65
2022/11/25 08:46:42;;;;;;;14.70;7.73;;;7.60;99.90;;;;;;5013701;28;20175;-65
2022/11/25 08:49:10;;;;;;;18.77;9.90;;;7.60;99.90;;;;;;5014068;28;20688;-65
2022/11/25 08:51:37;;;;;;;19.70;9.37;;;7.70;99.90;;;;;;5014219;28;20534;-65
2022/11/25 08:54:04;;;;;;;17.87;8.97;;;7.70;99.90;;;;;;5013665;28;20176;-65
2022/11/25 08:56:30;;;;;;;25.23;9.30;;;7.80;99.90;;;;;;5013961;28;20691;-65
2022/11/25 08:58:56;;;;;;;19.13;9.30;;;7.80;99.90;;;;;;5012201;28;20196;-65
2022/11/25 09:01:23;;;;;;;17.60;8.93;;;7.90;99.90;;;;;;5013789;28;20549;-65
2022/11/25 09:03:52;;;;;;;21.63;8.97;;;7.90;99.90;;;;;;5013527;28;20259;-65
2022/11/25 09:06:18;;;;;;;19.57;8.87;;;7.90;99.90;;;;;;5012244;28;20171;-65
2022/11/25 09:08:44;;;;;;;19.63;8.50;;;8.00;99.90;;;;;;5011773;28;20684;-66
2022/11/25 09:11:11;;;;;;;17.57;8.50;;;8.00;99.90;;;;;;5014044;28;20192;-65
2022/11/25 09:13:37;;;;;;;16.57;9.60;;;8.00;99.90;;;;;;5013395;28;20179;-66
2022/11/25 09:16:03;;;;;;;17.73;8.33;;;7.90;99.90;;;;;;5013558;28;20352;-65
2022/11/25 09:18:31;;;;;;;21.73;9.23;;;8.00;99.90;;;;;;5012167;28;20652;-66
2022/11/25 09:20:57;;;;;;;21.67;9.57;;;8.00;99.90;;;;;;5013333;28;20262;-65
2022/11/25 09:23:25;;;;;;;16.33;8.70;;;8.10;99.90;;;;;;5012052;28;20190;-65
2022/11/25 09:25:52;;;;;;;18.10;8.67;;;8.20;99.90;;;;;;5013404;28;20172;-65
2022/11/25 09:28:18;;;;;;;15.97;8.67;;;8.20;99.90;;;;;;5013184;28;20188;-66
2022/11/25 09:30:44;;;;;;;17.90;9.33;;;8.30;99.90;;;;;;5013368;28;20230;-65
2022/11/25 09:33:10;;;;;;;17.13;8.57;;;8.30;99.90;;;;;;5013299;28;20203;-65
2022/11/25 09:35:36;;;;;;;20.37;9.07;;;8.30;99.90;;;;;;5013275;28;20728;-65
2022/11/25 09:38:01;;;;;;;22.30;8.77;;;8.30;99.90;;;;;;5014068;28;20553;-66
2022/11/25 09:40:52;;;;;;;20.00;9.30;;;8.30;99.90;;;;;;5017366;28;20195;-65
2022/11/25 09:46:42;;;;;;;21.07;9.37;;;8.40;99.90;;;;;;5017126;28;20218;-65
2022/11/25 09:49:29;;;;;;;20.07;9.83;;;8.50;99.90;;;;;;5017177;28;20229;-65
2022/11/25 09:52:40;;;;;;;19.50;9.77;;;8.50;99.90;;;;;;5016972;28;20569;-65
2022/11/25 09:55:12;;;;;;;17.90;9.37;;;8.60;99.90;;;;;;4994517;28;20183;-65
2022/11/25 09:57:40;;;;;;;16.93;8.77;;;8.80;99.90;;;;;;4999312;28;20179;-65
2022/11/25 10:00:12;;;;;;;18.17;9.00;;;8.90;99.90;;;;;;5016524;28;20203;-65
2022/11/25 10:03:03;;;;;;;27.43;10.00;;;8.90;99.90;;;;;;4999188;28;20210;-66
2022/11/25 10:05:37;;;;;;;13.67;8.97;;;9.00;99.90;;;;;;5016685;28;20202;-65
2022/11/25 10:08:16;;;;;;;14.43;8.70;;;9.00;99.90;;;;;;5016647;28;20180;-65
2022/11/25 10:10:43;;;;;;;21.87;9.13;;;9.10;99.90;;;;;;5016539;28;20295;-65
2022/11/25 10:13:21;;;;;;;14.93;8.20;;;9.10;99.90;;;;;;5016454;28;20225;-66
2022/11/25 10:15:49;;;;;;;17.67;7.67;;;9.20;99.90;;;;;;5017319;28;20640;-66
2022/11/25 10:18:23;;;;;;;12.97;7.37;;;9.30;99.90;;;;;;5016671;28;20771;-65
2022/11/25 10:20:50;;;;;;;13.63;6.93;;;9.40;99.90;;;;;;5016571;28;20250;-65
2022/11/25 10:23:24;;;;;;;13.50;6.80;;;9.50;99.90;;;;;;4998660;28;20180;-65
2022/11/25 10:25:56;;;;;;;10.63;6.17;;;9.60;99.90;;;;;;5016368;28;20172;-65
2022/11/25 10:28:33;;;;;;;15.27;6.63;;;9.70;99.90;;;;;;5016188;28;20168;-65
2022/11/25 10:31:20;;;;;;;11.80;6.13;;;9.70;99.90;;;;;;4998564;28;20179;-65
2022/11/25 10:33:52;;;;;;;12.10;6.67;;;9.90;99.90;;;;;;5016378;28;20176;-65
2022/11/25 10:36:24;;;;;;;11.93;6.30;;;10.00;99.90;;;;;;5016417;28;20172;-65
2022/11/25 10:38:59;;;;;;;14.30;6.30;;;10.10;99.90;;;;;;4998459;28;20657;-65
2022/11/25 10:41:32;;;;;;;14.37;6.50;;;10.20;99.90;;;;;;5015912;28;20619;-65
2022/11/25 10:43:58;;;;;;;9.77;6.30;;;10.30;99.90;;;;;;4998274;28;20172;-66
2022/11/25 10:46:59;;;;;;;10.00;5.87;;;10.30;99.90;;;;;;5015897;28;20187;-65
2022/11/25 10:50:19;;;;;;;8.90;5.47;;;10.40;99.90;;;;;;4916997;29;20289;-65
2022/11/25 10:53:07;;;;;;;7.43;4.93;;;10.40;99.90;;;;;;4936356;29;20222;-65
2022/11/25 10:55:33;;;;;;;9.73;5.20;;;10.50;99.90;;;;;;4994193;28;20194;-65
2022/11/25 10:58:29;;;;;;;12.43;5.20;;;10.60;99.90;;;;;;4998034;28;20184;-66
2022/11/25 11:01:11;;;;;;;9.67;5.47;;;10.80;99.90;;;;;;5016100;28;20180;-65
2022/11/25 11:03:37;;;;;;;10.67;4.67;;;10.70;99.90;;;;;;4998084;28;20172;-66
2022/11/25 11:06:03;;;;;;;12.07;5.63;;;10.50;99.90;;;;;;5015639;28;20214;-66
2022/11/25 11:08:40;;;;;;;7.73;5.03;;;10.40;99.90;;;;;;5015411;28;20195;-66
2022/11/25 11:11:19;;;;;;;7.40;5.00;;;10.20;99.90;;;;;;5015493;28;20164;-66
2022/11/25 11:13:46;;;;;;;9.07;5.40;;;10.00;99.90;;;;;;4997723;28;20171;-65
2022/11/25 11:16:33;;;;;;;11.40;5.03;;;10.00;99.90;;;;;;5015318;28;20581;-65
2022/11/25 11:18:59;;;;;;;8.30;5.07;;;10.10;99.90;;;;;;5015302;28;20188;-66
2022/11/25 11:21:33;;;;;;;6.47;4.90;;;10.10;99.90;;;;;;5015521;28;20273;-66
2022/11/25 11:24:00;;;;;;;17.27;6.20;;;10.20;99.90;;;;;;5015268;28;20166;-65
2022/11/25 11:26:30;;;;;;;7.57;4.97;;;10.20;99.90;;;;;;5015216;28;20172;-65
2022/11/25 11:28:59;;;;;;;12.67;5.60;;;10.30;99.90;;;;;;4997350;28;20249;-66
2022/11/25 11:31:38;;;;;;;8.03;4.80;;;10.60;99.90;;;;;;5015337;28;20169;-66
2022/11/25 11:34:19;;;;;;;10.50;4.77;;;10.70;99.90;;;;;;5015275;28;20254;-66
2022/11/25 11:36:58;;;;;;;8.90;4.70;;;10.90;99.90;;;;;;5015293;28;20263;-66
2022/11/25 11:39:43;;;;;;;9.40;5.40;;;10.90;99.90;;;;;;5014819;28;20282;-66
2022/11/25 11:42:46;;;;;;;8.73;4.90;;;10.80;99.90;;;;;;4997327;28;20594;-65
2022/11/25 11:45:12;;;;;;;10.43;5.00;;;10.70;99.90;;;;;;5014714;28;20660;-65
2022/11/25 11:48:15;;;;;;;7.00;5.10;;;10.90;99.90;;;;;;5015058;28;20176;-65
2022/11/25 11:50:52;;;;;;;13.60;5.50;;;11.00;99.90;;;;;;5015123;28;20195;-66
2022/11/25 11:53:38;;;;;;;9.47;5.03;;;10.90;99.90;;;;;;5015023;28;20160;-65
2022/11/25 11:56:06;;;;;;;11.40;5.57;;;10.60;99.90;;;;;;5014712;28;20172;-66
2022/11/25 11:58:45;;;;;;;11.43;5.30;;;10.50;99.90;;;;;;5014686;28;20180;-67
2022/11/25 12:01:54;;;;;;;10.27;5.30;;;10.40;99.90;;;;;;5014098;28;20171;-65
2022/11/25 12:04:25;;;;;;;9.30;5.10;;;10.30;99.90;;;;;;4960699;28;20516;-66
2022/11/25 12:07:06;;;;;;;12.07;5.20;;;10.40;99.90;;;;;;4996968;28;20659;-65
2022/11/25 12:09:42;;;;;;;9.63;5.07;;;10.40;99.90;;;;;;5014215;28;20246;-66
2022/11/25 12:12:15;;;;;;;12.83;5.57;;;10.50;99.90;;;;;;5014534;28;20168;-66
2022/11/25 12:14:56;;;;;;;11.37;5.10;;;10.60;99.90;;;;;;5014306;28;20168;-66
2022/11/25 12:17:45;;;;;;;10.67;5.43;;;10.60;99.90;;;;;;5014642;28;20298;-66
2022/11/25 12:20:33;;;;;;;11.90;5.53;;;10.60;99.90;;;;;;5014618;28;20286;-66
2022/11/25 12:23:04;;;;;;;11.03;5.20;;;10.50;99.90;;;;;;5014497;28;20187;-66
2022/11/25 12:25:36;;;;;;;9.53;5.57;;;10.50;99.90;;;;;;5014604;28;20194;-66
2022/11/25 12:28:15;;;;;;;11.20;5.00;;;10.70;99.90;;;;;;5014461;28;20273;-66
2022/11/25 12:31:10;;;;;;;17.93;6.03;;;10.70;99.90;;;;;;5014161;28;20290;-66
2022/11/25 12:33:46;;;;;;;10.43;5.60;;;10.80;99.90;;;;;;5014337;28;20160;-66
2022/11/25 12:36:17;;;;;;;14.03;5.90;;;10.80;99.90;;;;;;4996384;28;20167;-66
2022/11/25 12:39:04;;;;;;;14.03;5.73;;;10.90;99.90;;;;;;4996238;28;20206;-66
2022/11/25 12:41:53;;;;;;;8.07;5.20;;;11.00;99.90;;;;;;5014533;28;20278;-66
2022/11/25 12:44:22;;;;;;;13.60;5.40;;;11.10;99.90;;;;;;5013819;28;20239;-66
2022/11/25 12:46:50;;;;;;;15.57;5.32;;;11.10;99.90;;;;;;5013826;28;20256;-66
2022/11/25 12:49:21;;;;;;;11.53;5.30;;;11.10;99.90;;;;;;5013821;28;20734;-66
2022/11/25 12:52:23;;;;;;;12.47;5.47;;;11.10;99.90;;;;;;4996272;28;20601;-66
2022/11/25 12:55:10;;;;;;;12.87;6.40;;;11.00;99.90;;;;;;5014069;28;20168;-66
2022/11/25 12:57:39;;;;;;;11.00;5.87;;;10.80;99.90;;;;;;4996227;28;20233;-66
2022/11/25 13:00:21;;;;;;;12.80;5.70;;;10.70;99.90;;;;;;5013523;28;20199;-66
2022/11/25 13:03:12;;;;;;;9.60;5.37;;;10.60;99.90;;;;;;5012486;28;20693;-66
2022/11/25 13:06:00;;;;;;;11.43;5.53;;;10.60;99.90;;;;;;5013851;28;20640;-66
2022/11/25 13:08:52;;;;;;;12.13;5.70;;;10.50;99.90;;;;;;5014384;28;20560;-66
2022/11/25 13:11:40;;;;;;;10.00;6.20;;;10.50;99.90;;;;;;5013892;28;20251;-66
2022/11/25 13:14:11;;;;;;;11.43;6.17;;;10.40;99.90;;;;;;5013299;28;20663;-66